createdAt,value
2018-12-23T00:00:26.938Z,9.40
2018-12-23T00:02:59.994Z,9.40
2018-12-23T00:05:38.120Z,9.30
2018-12-23T00:08:09.040Z,9.30
2018-12-23T00:10:40.829Z,9.20
2018-12-23T00:13:14.058Z,9.30
2018-12-23T00:15:45.569Z,9.20
2018-12-23T00:18:27.422Z,9.20
2018-12-23T00:21:03.640Z,9.20
2018-12-23T00:23:35.334Z,9.30
2018-12-23T00:26:06.563Z,9.30
2018-12-23T00:28:37.382Z,9.30
2018-12-23T00:31:06.609Z,9.30
2018-12-23T00:33:42.435Z,9.30
2018-12-23T00:36:14.043Z,9.30
2018-12-23T00:38:43.184Z,9.30
2018-12-23T00:41:12.762Z,9.30
2018-12-23T00:43:41.746Z,9.30
2018-12-23T00:46:13.692Z,9.30
2018-12-23T00:48:55.466Z,9.30
2018-12-23T00:51:27.711Z,9.40
2018-12-23T00:53:57.215Z,9.40
2018-12-23T00:56:27.909Z,9.40
2018-12-23T00:58:57.915Z,9.30
2018-12-23T01:01:28.638Z,9.30
2018-12-23T01:04:11.944Z,9.30
2018-12-23T01:06:43.056Z,9.30
2018-12-23T01:09:12.637Z,9.20
2018-12-23T01:11:42.245Z,9.20
2018-12-23T01:14:11.520Z,9.30
2018-12-23T01:16:40.980Z,9.20
2018-12-23T01:19:17.205Z,9.20
2018-12-23T01:21:46.402Z,9.20
2018-12-23T01:24:21.642Z,9.20
2018-12-23T01:26:50.864Z,9.20
2018-12-23T01:29:20.479Z,9.20
2018-12-23T01:31:49.648Z,9.20
2018-12-23T01:34:36.861Z,9.20
2018-12-23T01:37:07.509Z,9.20
2018-12-23T01:39:54.222Z,9.10
2018-12-23T01:42:31.208Z,9.20
2018-12-23T01:45:02.214Z,9.20
2018-12-23T01:47:31.287Z,9.10
2018-12-23T01:50:00.246Z,9.10
2018-12-23T01:52:30.159Z,9.10
2018-12-23T01:54:59.161Z,9.10
2018-12-23T01:57:29.041Z,9.10
2018-12-23T01:59:59.799Z,9.10
2018-12-23T02:02:28.899Z,9.20
2018-12-23T02:05:01.296Z,9.20
2018-12-23T02:07:37.933Z,9.10
2018-12-23T02:10:12.953Z,9.10
2018-12-23T02:12:42.597Z,9.20
2018-12-23T02:15:11.824Z,9.30
2018-12-23T02:17:49.555Z,9.20
2018-12-23T02:20:18.755Z,9.20
2018-12-23T02:22:47.747Z,9.20
2018-12-23T02:25:17.167Z,9.20
2018-12-23T02:27:47.135Z,9.20
2018-12-23T02:30:18.263Z,9.20
2018-12-23T02:32:48.006Z,9.20
2018-12-23T02:35:17.049Z,9.20
2018-12-23T02:37:46.056Z,9.10
2018-12-23T02:40:15.189Z,9.10
2018-12-23T02:42:45.073Z,9.10
2018-12-23T02:45:14.183Z,9.20
2018-12-23T02:47:43.158Z,9.10
2018-12-23T02:50:15.308Z,9.10
2018-12-23T02:52:44.168Z,9.10
2018-12-23T02:55:13.531Z,9.10
2018-12-23T02:57:42.459Z,9.20
2018-12-23T03:00:27.741Z,9.10
2018-12-23T03:03:04.542Z,9.10
2018-12-23T03:05:34.594Z,9.00
2018-12-23T03:08:04.192Z,9.00
2018-12-23T03:10:33.475Z,9.00
2018-12-23T03:13:02.644Z,8.90
2018-12-23T03:15:32.092Z,8.90
2018-12-23T03:18:01.698Z,8.90
2018-12-23T03:20:32.848Z,8.90
2018-12-23T03:23:02.166Z,8.90
2018-12-23T03:25:31.554Z,8.90
2018-12-23T03:28:03.980Z,8.80
2018-12-23T03:30:33.335Z,8.90
2018-12-23T03:33:02.690Z,8.80
2018-12-23T03:35:31.730Z,8.80
2018-12-23T03:38:01.181Z,8.80
2018-12-23T03:40:36.277Z,8.80
2018-12-23T03:43:05.512Z,8.80
2018-12-23T03:45:35.196Z,8.80
2018-12-23T03:48:04.418Z,8.80
2018-12-23T03:50:33.434Z,8.90
2018-12-23T03:53:03.187Z,8.90
2018-12-23T03:55:32.181Z,8.90
2018-12-23T03:58:01.214Z,9.00
2018-12-23T04:00:30.038Z,9.00
2018-12-23T04:02:58.929Z,8.90
2018-12-23T04:05:28.340Z,9.00
2018-12-23T04:07:57.346Z,9.00
2018-12-23T04:10:26.257Z,9.00
2018-12-23T04:12:55.543Z,9.00
2018-12-23T04:15:24.517Z,9.00
2018-12-23T04:17:53.336Z,8.90
2018-12-23T04:20:23.333Z,8.90
2018-12-23T04:22:52.233Z,9.00
2018-12-23T04:25:21.379Z,9.00
2018-12-23T04:27:50.341Z,9.00
2018-12-23T04:30:19.172Z,9.00
2018-12-23T04:32:48.053Z,8.90
2018-12-23T04:35:16.946Z,9.00
2018-12-23T04:37:59.630Z,9.00
2018-12-23T04:40:34.577Z,9.00
2018-12-23T04:43:03.573Z,9.00
2018-12-23T04:45:32.401Z,8.90
2018-12-23T04:48:09.772Z,8.90
2018-12-23T04:50:39.087Z,8.90
2018-12-23T04:53:08.231Z,8.90
2018-12-23T04:55:39.202Z,8.90
2018-12-23T04:58:08.742Z,8.90
2018-12-23T05:00:37.829Z,8.90
2018-12-23T05:03:06.649Z,8.90
2018-12-23T05:05:35.541Z,8.80
2018-12-23T05:08:04.675Z,8.80
2018-12-23T05:10:33.555Z,8.80
2018-12-23T05:13:03.071Z,8.90
2018-12-23T05:15:37.103Z,8.90
2018-12-23T05:18:06.582Z,8.90
2018-12-23T05:20:35.930Z,8.90
2018-12-23T05:23:04.761Z,8.90
2018-12-23T05:25:33.815Z,8.90
2018-12-23T05:28:02.745Z,9.00
2018-12-23T05:30:31.526Z,9.00
2018-12-23T05:33:00.488Z,9.00
2018-12-23T05:35:32.191Z,9.00
2018-12-23T05:38:02.844Z,9.00
2018-12-23T05:40:32.375Z,9.00
2018-12-23T05:43:01.436Z,9.10
2018-12-23T05:45:30.951Z,9.10
2018-12-23T05:48:00.472Z,9.10
2018-12-23T05:50:29.568Z,9.10
2018-12-23T05:52:58.519Z,9.10
2018-12-23T05:55:27.142Z,9.10
2018-12-23T05:57:57.091Z,9.10
2018-12-23T06:00:27.619Z,9.10
2018-12-23T06:02:56.578Z,9.10
2018-12-23T06:05:25.894Z,9.10
2018-12-23T06:07:54.850Z,9.10
2018-12-23T06:10:24.260Z,9.10
2018-12-23T06:12:53.208Z,9.10
2018-12-23T06:15:24.057Z,9.00
2018-12-23T06:17:55.049Z,9.00
2018-12-23T06:20:23.945Z,9.00
2018-12-23T06:22:53.023Z,9.00
2018-12-23T06:25:22.106Z,9.00
2018-12-23T06:27:51.986Z,9.00
2018-12-23T06:30:24.534Z,9.00
2018-12-23T06:32:56.329Z,8.90
2018-12-23T06:35:26.473Z,9.00
2018-12-23T06:37:55.695Z,8.90
2018-12-23T06:40:24.545Z,8.90
2018-12-23T06:42:53.438Z,9.00
2018-12-23T06:45:22.331Z,8.90
2018-12-23T06:47:52.173Z,8.90
2018-12-23T06:50:23.114Z,8.90
2018-12-23T06:52:52.345Z,8.80
2018-12-23T06:55:21.301Z,8.90
2018-12-23T06:57:50.615Z,8.80
2018-12-23T07:00:20.560Z,8.90
2018-12-23T07:02:49.635Z,8.90
2018-12-23T07:05:19.924Z,8.90
2018-12-23T07:07:49.040Z,8.90
2018-12-23T07:10:18.238Z,9.00
2018-12-23T07:12:57.144Z,9.00
2018-12-23T07:15:26.036Z,9.00
2018-12-23T07:17:55.274Z,9.10
2018-12-23T07:20:24.242Z,9.10
2018-12-23T07:22:53.286Z,9.10
2018-12-23T07:25:22.702Z,9.10
2018-12-23T07:27:52.793Z,9.20
2018-12-23T07:30:21.734Z,9.20
2018-12-23T07:32:53.758Z,9.20
2018-12-23T07:35:22.999Z,9.20
2018-12-23T07:37:52.180Z,9.30
2018-12-23T07:40:21.304Z,9.20
2018-12-23T07:47:13.106Z,9.20
2018-12-23T07:49:55.076Z,9.20
2018-12-23T07:52:36.126Z,9.30
2018-12-23T07:55:18.011Z,9.30
2018-12-23T07:57:59.959Z,9.30
2018-12-23T08:00:40.947Z,9.30
2018-12-23T08:03:22.840Z,9.40
2018-12-23T08:06:05.166Z,9.40
2018-12-23T08:08:48.393Z,9.50
2018-12-23T08:11:30.209Z,9.50
2018-12-23T08:14:11.615Z,9.50
2018-12-23T08:16:52.967Z,9.50
2018-12-23T08:19:34.185Z,9.50
2018-12-23T08:22:16.189Z,9.50
2018-12-23T08:24:58.187Z,9.50
2018-12-23T08:27:39.919Z,9.50
2018-12-23T08:30:21.833Z,9.50
2018-12-23T08:33:04.092Z,9.60
2018-12-23T08:35:46.191Z,9.60
2018-12-23T08:38:28.794Z,9.60
2018-12-23T08:41:10.527Z,9.70
2018-12-23T08:43:54.015Z,9.70
2018-12-23T08:46:39.245Z,9.70
2018-12-23T08:49:19.185Z,9.80
2018-12-23T08:52:00.440Z,9.80
2018-12-23T08:54:42.143Z,9.90
2018-12-23T08:57:25.586Z,10.00
2018-12-23T09:00:07.328Z,10.00
2018-12-23T09:02:48.766Z,10.10
2018-12-23T09:05:30.762Z,10.10
2018-12-23T09:08:15.166Z,10.10
2018-12-23T09:10:57.073Z,10.30
2018-12-23T09:13:38.878Z,10.20
2018-12-23T09:16:20.259Z,10.20
2018-12-23T09:19:01.720Z,10.20
2018-12-23T09:21:50.613Z,10.20
2018-12-23T09:24:32.532Z,10.10
2018-12-23T09:27:15.585Z,10.10
2018-12-23T09:29:57.497Z,10.10
2018-12-23T09:32:38.680Z,10.00
2018-12-23T09:35:19.795Z,10.00
2018-12-23T09:38:01.620Z,10.00
2018-12-23T09:40:43.807Z,10.10
2018-12-23T09:43:25.690Z,9.90
2018-12-23T09:46:07.652Z,10.00
2018-12-23T09:48:48.633Z,10.10
2018-12-23T09:51:30.542Z,10.00
2018-12-23T09:54:13.796Z,10.00
2018-12-23T09:56:55.090Z,10.00
2018-12-23T09:59:36.979Z,10.00
2018-12-23T10:02:18.902Z,10.00
2018-12-23T10:05:00.904Z,10.10
2018-12-23T10:07:42.955Z,10.20
2018-12-23T10:10:28.352Z,10.10
2018-12-23T10:13:07.291Z,10.00
2018-12-23T10:15:49.198Z,10.00
2018-12-23T10:18:30.899Z,9.90
2018-12-23T10:23:59.214Z,9.90
2018-12-23T10:26:41.161Z,10.00
2018-12-23T10:29:22.783Z,10.00
2018-12-23T10:32:04.555Z,10.10
2018-12-23T10:34:46.611Z,10.10
2018-12-23T10:37:28.527Z,10.10
2018-12-23T10:40:08.864Z,10.10
2018-12-23T10:42:49.928Z,10.10
2018-12-23T10:45:31.883Z,10.10
2018-12-23T10:48:13.010Z,10.20
2018-12-23T10:50:54.750Z,10.20
2018-12-23T10:53:39.540Z,10.10
2018-12-23T10:56:20.819Z,10.20
2018-12-23T10:59:05.168Z,10.20
2018-12-23T11:01:47.298Z,10.10
2018-12-23T11:04:28.293Z,9.80
2018-12-23T11:07:10.342Z,9.60
2018-12-23T11:10:01.948Z,9.50
2018-12-23T11:12:38.032Z,9.40
2018-12-23T11:15:19.949Z,9.40
2018-12-23T11:18:25.819Z,9.40
2018-12-23T11:24:56.740Z,9.40
2018-12-23T11:27:12.579Z,9.40
2018-12-23T11:29:41.073Z,9.40
2018-12-23T11:32:21.551Z,9.40
2018-12-23T11:37:52.672Z,9.40
2018-12-23T11:40:35.102Z,9.40
2018-12-23T11:43:16.702Z,9.40
2018-12-23T11:45:58.653Z,9.40
2018-12-23T11:48:43.088Z,9.40
2018-12-23T11:51:24.455Z,9.40
2018-12-23T11:54:08.310Z,9.40
2018-12-23T11:56:51.090Z,9.50
2018-12-23T11:59:34.343Z,9.50
2018-12-23T12:02:16.468Z,9.50
2018-12-23T12:04:58.313Z,9.50
2018-12-23T12:07:40.591Z,9.50
2018-12-23T12:10:24.723Z,9.50
2018-12-23T12:13:09.259Z,9.60
2018-12-23T12:15:51.250Z,9.60
2018-12-23T12:18:32.748Z,9.50
2018-12-23T12:21:14.682Z,9.50
2018-12-23T12:23:57.983Z,9.40
2018-12-23T12:26:43.572Z,9.40
2018-12-23T12:29:25.903Z,9.30
2018-12-23T12:38:07.370Z,9.20
2018-12-23T12:41:18.398Z,9.20
2018-12-23T12:47:46.174Z,9.10
2018-12-23T12:50:30.209Z,9.20
2018-12-23T12:53:12.634Z,9.10
2018-12-23T12:56:50.556Z,9.10
2018-12-23T12:59:12.367Z,9.10
2018-12-23T13:02:20.248Z,9.10
2018-12-23T13:05:04.422Z,9.10
2018-12-23T13:07:50.146Z,9.10
2018-12-23T13:13:23.582Z,9.00
2018-12-23T13:16:06.433Z,9.00
2018-12-23T13:18:50.104Z,9.00
2018-12-23T13:21:59.717Z,9.00
2018-12-23T13:24:41.699Z,9.00
2018-12-23T13:30:03.644Z,9.00
2018-12-23T13:35:59.177Z,8.90
2018-12-23T13:38:30.998Z,8.90
2018-12-23T13:41:16.600Z,8.90
2018-12-23T13:43:59.168Z,8.90
2018-12-23T13:46:41.392Z,8.90
2018-12-23T13:50:08.896Z,8.90
2018-12-23T13:53:18.178Z,8.80
2018-12-23T13:56:02.190Z,8.80
2018-12-23T13:58:46.544Z,8.90
2018-12-23T14:01:31.800Z,8.80
2018-12-23T14:04:24.744Z,8.80
2018-12-23T14:07:36.475Z,8.80
2018-12-23T14:10:19.276Z,8.80
2018-12-23T14:13:07.209Z,8.80
2018-12-23T14:22:19.168Z,8.70
2018-12-23T14:25:02.459Z,8.70
2018-12-23T14:27:32.939Z,8.60
2018-12-23T14:30:22.025Z,8.60
2018-12-23T14:33:11.123Z,8.60
2018-12-23T14:35:42.970Z,8.50
2018-12-23T14:41:46.709Z,8.50
2018-12-23T14:44:29.092Z,8.50
2018-12-23T14:47:32.281Z,8.50
2018-12-23T14:50:14.952Z,8.40
2018-12-23T14:52:56.175Z,8.40
2018-12-23T14:55:38.732Z,8.50
2018-12-23T14:58:20.568Z,8.50
2018-12-23T15:01:10.700Z,8.40
2018-12-23T15:04:06.047Z,8.40
2018-12-23T15:06:48.590Z,8.40
2018-12-23T15:09:34.279Z,8.40
2018-12-23T15:15:09.021Z,8.40
2018-12-23T15:24:50.980Z,8.50
2018-12-23T15:27:58.273Z,8.50
2018-12-23T15:30:29.074Z,8.60
2018-12-23T15:36:10.192Z,8.70
2018-12-23T15:39:14.907Z,8.60
2018-12-23T15:44:46.158Z,8.70
2018-12-23T15:47:28.191Z,8.80
2018-12-23T15:50:13.287Z,8.80
2018-12-23T15:52:56.664Z,8.90
2018-12-23T15:55:44.293Z,8.90
2018-12-23T16:04:18.988Z,9.00
2018-12-23T16:07:27.093Z,9.00
2018-12-23T16:10:16.084Z,8.90
2018-12-23T16:12:57.924Z,8.90
2018-12-23T16:15:39.804Z,8.90
2018-12-23T16:18:21.768Z,8.90
2018-12-23T16:21:03.679Z,8.90
2018-12-23T16:23:45.780Z,8.90
2018-12-23T16:26:27.550Z,8.90
2018-12-23T16:29:12.703Z,8.90
2018-12-23T16:32:02.865Z,8.80
2018-12-23T16:35:08.527Z,8.80
2018-12-23T16:40:45.684Z,8.80
2018-12-23T16:43:37.460Z,8.90
2018-12-23T16:46:08.243Z,8.90
2018-12-23T16:54:46.760Z,9.00
2018-12-23T17:00:10.210Z,9.00
2018-12-23T17:02:51.427Z,9.00
2018-12-23T17:05:33.240Z,9.00
2018-12-23T17:08:15.885Z,9.00
2018-12-23T17:11:00.961Z,9.00
2018-12-23T17:13:43.073Z,9.10
2018-12-23T17:16:24.313Z,9.10
2018-12-23T17:22:07.593Z,9.10
2018-12-23T17:24:50.818Z,9.20
2018-12-23T17:27:32.381Z,9.10
2018-12-23T17:30:14.416Z,9.00
2018-12-23T17:33:04.441Z,9.10
2018-12-23T17:36:04.250Z,9.10
2018-12-23T17:38:22.689Z,9.10
2018-12-23T17:47:12.810Z,9.00
2018-12-23T17:49:54.595Z,9.10
2018-12-23T17:52:25.077Z,9.00
2018-12-23T17:54:57.185Z,9.10
2018-12-23T17:57:55.141Z,9.10
2018-12-23T18:03:40.141Z,9.10
2018-12-23T18:06:25.174Z,9.10
2018-12-23T18:12:06.711Z,9.00
2018-12-23T18:14:48.299Z,9.00
2018-12-23T18:17:29.528Z,9.00
2018-12-23T18:20:12.125Z,9.00
2018-12-23T18:22:53.295Z,9.10
2018-12-23T18:25:38.039Z,9.10
2018-12-23T18:28:27.587Z,9.10
2018-12-23T18:31:26.891Z,9.30
2018-12-23T18:34:16.681Z,9.20
2018-12-23T18:36:58.220Z,9.10
2018-12-23T18:39:43.734Z,9.20
2018-12-23T18:42:25.577Z,9.30
2018-12-23T18:45:08.709Z,9.40
2018-12-23T18:47:53.313Z,9.40
2018-12-23T18:50:35.510Z,9.40
2018-12-23T18:53:07.896Z,9.50
2018-12-23T18:55:39.441Z,9.50
2018-12-23T18:58:47.610Z,9.50
2018-12-23T19:01:37.694Z,9.50
2018-12-23T19:04:19.444Z,9.60
2018-12-23T19:07:03.194Z,9.60
2018-12-23T19:10:11.542Z,9.60
2018-12-23T19:13:19.512Z,9.60
2018-12-23T19:16:00.589Z,9.70
2018-12-23T19:18:43.288Z,9.80
2018-12-23T19:21:25.116Z,9.90
2018-12-23T19:24:07.053Z,9.90
2018-12-23T19:26:48.921Z,9.90
2018-12-23T19:29:30.379Z,9.90
2018-12-23T19:32:52.220Z,10.00
2018-12-23T19:35:50.103Z,10.00
2018-12-23T19:39:00.015Z,10.10
2018-12-23T19:42:10.226Z,10.20
2018-12-23T19:45:18.242Z,10.30
2018-12-23T19:48:02.102Z,10.40
2018-12-23T19:50:46.738Z,10.50
2018-12-23T19:53:30.549Z,10.50
2018-12-23T19:56:16.680Z,10.50
2018-12-23T19:59:01.693Z,10.60
2018-12-23T20:02:01.539Z,10.60
2018-12-23T20:04:59.503Z,10.70
2018-12-23T20:08:07.471Z,10.70
2018-12-23T20:10:49.233Z,10.70
2018-12-23T20:13:30.682Z,10.80
2018-12-23T20:16:17.167Z,10.90
2018-12-23T20:18:58.721Z,10.90
2018-12-23T20:21:42.330Z,10.90
2018-12-23T20:24:24.029Z,11.00
2018-12-23T20:27:25.223Z,11.00
2018-12-23T20:29:57.524Z,11.00
2018-12-23T20:32:47.805Z,11.00
2018-12-23T20:38:14.349Z,11.00
2018-12-23T20:40:54.835Z,11.00
2018-12-23T20:43:37.489Z,11.00
2018-12-23T20:49:33.622Z,11.00
2018-12-23T20:52:18.587Z,11.00
2018-12-23T20:55:05.295Z,11.00
2018-12-23T20:57:57.647Z,11.00
2018-12-23T21:00:46.434Z,11.00
2018-12-23T21:03:32.296Z,10.90
2018-12-23T21:06:14.814Z,10.90
2018-12-23T21:09:16.547Z,10.90
2018-12-23T21:12:08.240Z,10.90
2018-12-23T21:14:55.089Z,10.90
2018-12-23T21:17:37.322Z,10.40
2018-12-23T21:20:24.159Z,10.20
2018-12-23T21:23:06.355Z,10.00
2018-12-23T21:25:48.202Z,10.00
2018-12-23T21:34:37.751Z,9.80
2018-12-23T21:37:19.517Z,9.70
2018-12-23T21:40:01.712Z,9.60
2018-12-23T21:43:30.004Z,9.50
2018-12-23T21:46:32.553Z,9.40
2018-12-23T21:49:01.926Z,9.30
2018-12-23T21:54:40.633Z,9.30
2018-12-23T21:57:23.222Z,9.20
2018-12-23T22:00:04.631Z,9.10
2018-12-23T22:02:46.586Z,9.10
2018-12-23T22:05:28.619Z,9.00
2018-12-23T22:08:10.052Z,9.00
2018-12-23T22:10:51.177Z,9.00
2018-12-23T22:13:34.248Z,9.00
2018-12-23T22:16:17.457Z,8.90
2018-12-23T22:18:59.299Z,8.80
2018-12-23T22:21:42.591Z,8.70
2018-12-23T22:24:31.604Z,8.60
2018-12-23T22:27:34.653Z,8.40
2018-12-23T22:30:35.177Z,8.30
2018-12-23T22:36:16.547Z,8.00
2018-12-23T22:38:57.804Z,7.90
2018-12-23T22:41:41.130Z,7.90
2018-12-23T22:44:28.146Z,7.80
2018-12-23T22:50:17.609Z,7.80
2018-12-23T22:52:59.639Z,7.70
2018-12-23T22:55:40.978Z,7.60
2018-12-23T22:58:22.946Z,7.60
2018-12-23T23:01:06.119Z,7.50
2018-12-23T23:03:50.640Z,7.50
2018-12-23T23:06:32.082Z,7.40
2018-12-23T23:09:36.072Z,7.40
2018-12-23T23:12:11.559Z,7.30
2018-12-23T23:14:52.795Z,7.20
2018-12-23T23:17:34.259Z,7.30
2018-12-23T23:20:15.682Z,7.10
2018-12-23T23:22:58.566Z,7.10
2018-12-23T23:25:40.725Z,7.10
2018-12-23T23:28:22.449Z,7.10
2018-12-23T23:30:52.750Z,7.10
2018-12-23T23:33:41.819Z,7.00
2018-12-23T23:36:34.196Z,6.90
2018-12-23T23:41:59.183Z,7.00
2018-12-23T23:44:40.905Z,7.00
2018-12-23T23:47:25.082Z,7.00
2018-12-23T23:50:07.312Z,7.00
2018-12-23T23:52:48.900Z,7.00
2018-12-23T23:55:33.133Z,6.90
